createdAt,value
2022-11-16T00:02:22.153Z,10.18
2022-11-16T00:04:51.726Z,10.56
2022-11-16T00:07:21.204Z,10.59
2022-11-16T00:09:50.563Z,10.55
2022-11-16T00:12:19.754Z,10.51
2022-11-16T00:14:48.917Z,10.60
2022-11-16T00:17:18.381Z,10.75
2022-11-16T00:19:49.305Z,10.73
2022-11-16T00:22:18.433Z,10.45
2022-11-16T00:24:47.816Z,10.60
2022-11-16T00:27:17.081Z,10.56
2022-11-16T00:29:48.144Z,10.58
2022-11-16T00:32:17.620Z,10.77
2022-11-16T00:34:48.676Z,10.73
2022-11-16T00:37:18.155Z,10.87
2022-11-16T00:39:47.376Z,10.75
2022-11-16T00:42:16.557Z,10.74
2022-11-16T00:44:45.980Z,10.75
2022-11-16T00:47:15.443Z,10.69
2022-11-16T00:49:44.651Z,10.25
2022-11-16T00:52:15.211Z,10.36
2022-11-16T00:54:44.455Z,10.52
2022-11-16T00:57:13.700Z,10.35
2022-11-16T00:59:42.896Z,10.13
2022-11-16T01:02:12.348Z,10.18
2022-11-16T01:04:44.161Z,10.72
2022-11-16T01:07:14.846Z,10.77
2022-11-16T01:09:44.496Z,10.56
2022-11-16T01:12:13.749Z,10.63
2022-11-16T01:14:45.217Z,10.32
2022-11-16T01:17:14.640Z,10.11
2022-11-16T01:19:43.823Z,10.38
2022-11-16T01:22:14.761Z,10.44
2022-11-16T01:24:44.149Z,10.50
2022-11-16T01:27:13.424Z,10.30
2022-11-16T01:29:42.588Z,10.45
2022-11-16T01:32:12.027Z,10.44
2022-11-16T01:34:41.356Z,10.62
2022-11-16T01:37:10.765Z,10.64
2022-11-16T01:39:41.591Z,10.60
2022-11-16T01:42:15.845Z,10.24
2022-11-16T01:45:00.806Z,10.26
2022-11-16T01:47:30.216Z,10.33
2022-11-16T01:50:04.433Z,10.28
2022-11-16T01:52:35.877Z,10.40
2022-11-16T01:55:07.219Z,10.64
2022-11-16T01:57:40.131Z,9.44
2022-11-16T02:00:11.789Z,9.95
2022-11-16T02:02:41.189Z,10.28
2022-11-16T02:05:12.188Z,10.17
2022-11-16T02:08:13.568Z,10.06
2022-11-16T02:10:55.012Z,9.83
2022-11-16T02:13:34.468Z,9.80
2022-11-16T02:16:13.292Z,10.25
2022-11-16T02:18:52.654Z,10.44
2022-11-16T02:21:36.942Z,10.41
2022-11-16T02:24:33.534Z,10.33
2022-11-16T02:27:28.569Z,10.48
2022-11-16T02:29:59.703Z,10.23
2022-11-16T02:32:32.999Z,10.35
2022-11-16T02:35:06.344Z,10.50
2022-11-16T02:37:39.185Z,10.47
2022-11-16T02:40:11.136Z,10.42
2022-11-16T02:42:43.197Z,10.43
2022-11-16T02:45:18.130Z,10.23
2022-11-16T02:47:49.008Z,10.32
2022-11-16T02:50:21.358Z,10.17
2022-11-16T02:52:50.732Z,10.36
2022-11-16T02:55:19.975Z,10.35
2022-11-16T02:57:53.008Z,10.24
2022-11-16T03:00:25.628Z,10.09
2022-11-16T03:03:18.321Z,10.01
2022-11-16T03:05:49.643Z,10.13
2022-11-16T03:08:22.118Z,10.32
2022-11-16T03:11:12.609Z,10.28
2022-11-16T03:13:42.914Z,10.65
2022-11-16T03:16:16.240Z,10.17
2022-11-16T03:18:46.633Z,10.29
2022-11-16T03:21:19.876Z,10.26
2022-11-16T03:23:49.202Z,10.27
2022-11-16T03:26:21.844Z,9.88
2022-11-16T03:28:59.016Z,10.23
2022-11-16T03:31:32.705Z,10.45
2022-11-16T03:34:04.716Z,10.38
2022-11-16T03:36:36.431Z,9.95
2022-11-16T03:39:09.815Z,10.25
2022-11-16T03:41:41.484Z,9.96
2022-11-16T03:44:12.639Z,10.30
2022-11-16T03:46:44.076Z,10.34
2022-11-16T03:49:13.411Z,10.12
2022-11-16T03:51:42.807Z,10.46
2022-11-16T03:54:13.046Z,10.18
2022-11-16T03:56:42.223Z,10.25
2022-11-16T03:59:11.430Z,9.93
2022-11-16T04:01:44.874Z,9.84
2022-11-16T04:04:34.679Z,10.00
2022-11-16T04:07:21.740Z,10.03
2022-11-16T04:10:08.901Z,10.17
2022-11-16T04:13:01.921Z,10.09
2022-11-16T04:15:48.392Z,10.09
2022-11-16T04:18:36.550Z,9.87
2022-11-16T04:21:23.317Z,9.91
2022-11-16T04:24:10.141Z,9.84
2022-11-16T04:26:53.640Z,9.99
2022-11-16T04:29:22.890Z,9.88
2022-11-16T04:32:09.751Z,9.85
2022-11-16T04:34:57.761Z,9.83
2022-11-16T04:37:44.798Z,9.82
2022-11-16T04:40:14.757Z,9.59
2022-11-16T04:42:44.110Z,9.81
2022-11-16T04:45:30.896Z,9.81
2022-11-16T04:48:00.205Z,10.47
2022-11-16T04:50:31.295Z,9.94
2022-11-16T04:53:01.204Z,9.71
2022-11-16T04:55:30.489Z,9.63
2022-11-16T04:57:59.423Z,9.96
2022-11-16T05:00:28.840Z,10.15
2022-11-16T05:03:01.209Z,10.25
2022-11-16T05:05:32.857Z,10.33
2022-11-16T05:08:02.369Z,10.50
2022-11-16T05:10:31.765Z,10.21
2022-11-16T05:13:01.455Z,10.12
2022-11-16T05:15:30.802Z,9.94
2022-11-16T05:18:00.334Z,10.11
2022-11-16T05:20:48.396Z,10.28
2022-11-16T05:23:35.097Z,10.50
2022-11-16T05:26:04.300Z,10.29
2022-11-16T05:28:33.889Z,10.19
2022-11-16T05:31:03.722Z,10.31
2022-11-16T05:33:33.145Z,10.34
2022-11-16T05:36:04.445Z,10.32
2022-11-16T05:38:33.914Z,10.25
2022-11-16T05:41:03.307Z,10.34
2022-11-16T05:43:32.517Z,10.07
2022-11-16T05:46:01.927Z,10.48
2022-11-16T05:48:31.405Z,10.00
2022-11-16T05:51:02.293Z,10.10
2022-11-16T05:53:31.671Z,10.28
2022-11-16T05:56:01.202Z,10.01
2022-11-16T05:58:31.914Z,10.29
2022-11-16T06:01:01.619Z,10.43
2022-11-16T06:03:31.003Z,10.59
2022-11-16T06:06:00.425Z,10.09
2022-11-16T06:08:31.560Z,9.94
2022-11-16T06:11:04.061Z,9.89
2022-11-16T06:13:33.641Z,10.25
2022-11-16T06:16:03.269Z,10.11
2022-11-16T06:18:32.844Z,10.12
2022-11-16T06:21:02.535Z,9.67
2022-11-16T06:23:34.545Z,10.11
2022-11-16T06:26:03.939Z,9.68
2022-11-16T06:28:33.466Z,9.88
2022-11-16T06:31:03.348Z,9.88
2022-11-16T06:33:33.874Z,9.70
2022-11-16T06:36:03.301Z,9.85
2022-11-16T06:38:34.568Z,9.94
2022-11-16T06:41:05.144Z,10.17
2022-11-16T06:43:34.263Z,9.84
2022-11-16T06:46:03.487Z,10.07
2022-11-16T06:48:34.224Z,9.96
2022-11-16T06:51:03.754Z,9.96
2022-11-16T06:53:34.393Z,9.73
2022-11-16T06:56:04.710Z,9.67
2022-11-16T06:58:34.409Z,10.17
2022-11-16T07:01:07.785Z,9.87
2022-11-16T07:03:36.987Z,10.01
2022-11-16T07:06:11.010Z,9.54
2022-11-16T07:08:41.622Z,9.62
2022-11-16T07:11:11.910Z,9.45
2022-11-16T07:13:41.129Z,9.46
2022-11-16T07:16:11.785Z,9.52
2022-11-16T07:18:42.000Z,9.54
2022-11-16T07:21:14.211Z,10.09
2022-11-16T07:23:45.478Z,10.08
2022-11-16T07:26:14.883Z,10.39
2022-11-16T07:28:48.173Z,9.91
2022-11-16T07:31:17.952Z,10.29
2022-11-16T07:33:47.108Z,10.10
2022-11-16T07:36:17.024Z,10.43
2022-11-16T07:38:50.454Z,10.18
2022-11-16T07:41:20.570Z,9.89
2022-11-16T07:43:52.972Z,9.65
2022-11-16T07:49:15.946Z,9.62
2022-11-16T07:51:45.793Z,9.67
2022-11-16T07:54:16.993Z,9.61
2022-11-16T07:56:46.265Z,10.00
2022-11-16T07:59:15.582Z,9.94
2022-11-16T08:01:44.849Z,9.75
2022-11-16T08:04:15.445Z,9.68
2022-11-16T08:06:46.916Z,9.79
2022-11-16T08:09:17.753Z,9.86
2022-11-16T08:11:47.289Z,9.67
2022-11-16T08:14:18.636Z,9.82
2022-11-16T08:16:48.219Z,9.76
2022-11-16T08:19:17.371Z,9.87
2022-11-16T08:21:46.832Z,9.83
2022-11-16T08:24:18.289Z,9.76
2022-11-16T08:26:47.508Z,9.81
2022-11-16T08:29:16.827Z,9.95
2022-11-16T08:31:46.726Z,9.94
2022-11-16T08:34:15.980Z,9.99
2022-11-16T08:36:45.233Z,9.85
2022-11-16T08:39:14.572Z,9.90
2022-11-16T08:41:45.738Z,9.90
2022-11-16T08:44:15.754Z,9.73
2022-11-16T08:46:44.937Z,9.90
2022-11-16T08:49:14.204Z,9.82
2022-11-16T08:51:43.442Z,9.83
2022-11-16T08:54:12.645Z,9.93
2022-11-16T08:56:41.964Z,10.24
2022-11-16T08:59:13.672Z,9.87
2022-11-16T09:01:42.818Z,9.68
2022-11-16T09:04:12.271Z,10.14
2022-11-16T09:06:41.568Z,10.08
2022-11-16T09:09:10.725Z,10.03
2022-11-16T09:11:40.242Z,10.10
2022-11-16T09:14:11.094Z,10.07
2022-11-16T09:16:40.497Z,9.84
2022-11-16T09:19:10.830Z,10.05
2022-11-16T09:21:39.980Z,10.03
2022-11-16T09:24:10.129Z,9.68
2022-11-16T09:26:39.413Z,9.82
2022-11-16T09:29:08.583Z,10.23
2022-11-16T09:31:39.475Z,10.46
2022-11-16T09:34:08.912Z,10.31
2022-11-16T09:36:38.180Z,10.23
2022-11-16T09:39:29.513Z,9.91
2022-11-16T09:42:17.454Z,9.93
2022-11-16T09:44:59.934Z,10.55
2022-11-16T09:47:40.073Z,10.48
2022-11-16T09:50:13.845Z,10.13
2022-11-16T09:52:45.874Z,10.45
2022-11-16T09:55:24.834Z,10.29
2022-11-16T09:57:56.958Z,10.19
2022-11-16T10:00:26.347Z,10.31
2022-11-16T10:03:03.138Z,10.31
2022-11-16T10:05:37.075Z,10.01
2022-11-16T10:08:11.575Z,9.98
2022-11-16T10:10:44.704Z,10.08
2022-11-16T10:13:24.693Z,9.93
2022-11-16T10:16:02.470Z,10.17
2022-11-16T10:18:44.305Z,10.30
2022-11-16T10:21:30.388Z,10.18
2022-11-16T10:24:14.345Z,10.23
2022-11-16T10:26:49.524Z,10.10
2022-11-16T10:29:33.625Z,9.97
2022-11-16T10:32:12.066Z,10.18
2022-11-16T10:34:47.399Z,10.24
2022-11-16T10:37:17.151Z,10.28
2022-11-16T10:39:49.663Z,10.01
2022-11-16T10:42:21.197Z,10.21
2022-11-16T10:44:55.104Z,10.30
2022-11-16T10:47:32.387Z,10.62
2022-11-16T10:50:07.328Z,10.42
2022-11-16T10:52:37.116Z,10.05
2022-11-16T10:55:07.577Z,10.34
2022-11-16T10:57:54.764Z,10.26
2022-11-16T11:00:40.064Z,10.14
2022-11-16T11:03:11.918Z,10.40
2022-11-16T11:05:52.416Z,10.27
2022-11-16T11:08:30.628Z,10.45
2022-11-16T11:11:22.823Z,10.38
2022-11-16T11:14:12.158Z,10.41
2022-11-16T11:16:41.651Z,10.58
2022-11-16T11:19:25.371Z,10.13
2022-11-16T11:22:00.381Z,10.41
2022-11-16T11:24:43.862Z,10.54
2022-11-16T11:27:14.337Z,10.40
2022-11-16T11:29:44.725Z,10.72
2022-11-16T11:32:22.430Z,10.36
2022-11-16T11:34:54.733Z,10.62
2022-11-16T11:37:29.303Z,10.62
2022-11-16T11:40:21.701Z,10.70
2022-11-16T11:42:56.864Z,10.77
2022-11-16T11:45:34.931Z,10.78
2022-11-16T11:48:06.305Z,10.76
2022-11-16T11:50:43.783Z,10.68
2022-11-16T11:53:22.049Z,10.74
2022-11-16T11:55:56.753Z,10.90
2022-11-16T11:58:30.638Z,10.83
2022-11-16T12:01:13.166Z,10.79
2022-11-16T12:04:05.910Z,10.99
2022-11-16T12:06:43.593Z,10.87
2022-11-16T12:09:32.403Z,10.73
2022-11-16T12:12:14.709Z,10.63
2022-11-16T12:15:01.626Z,10.89
2022-11-16T12:17:36.364Z,11.05
2022-11-16T12:20:19.641Z,10.87
2022-11-16T12:23:17.001Z,10.72
2022-11-16T12:25:54.045Z,10.66
2022-11-16T12:28:51.209Z,10.57
2022-11-16T12:31:46.719Z,10.69
2022-11-16T12:34:21.726Z,10.89
2022-11-16T12:36:57.214Z,10.93
2022-11-16T12:39:30.735Z,10.91
2022-11-16T12:42:28.454Z,10.86
2022-11-16T12:45:19.839Z,10.68
2022-11-16T12:48:12.840Z,10.92
2022-11-16T12:50:54.194Z,11.04
2022-11-16T12:53:48.168Z,10.97
2022-11-16T12:56:24.622Z,11.00
2022-11-16T12:59:14.715Z,10.87
2022-11-16T13:01:49.499Z,10.98
2022-11-16T13:04:22.324Z,10.90
2022-11-16T13:06:55.767Z,10.90
2022-11-16T13:09:26.807Z,10.95
2022-11-16T13:11:58.784Z,10.68
2022-11-16T13:14:33.404Z,10.79
2022-11-16T13:17:03.319Z,10.69
2022-11-16T13:19:33.619Z,10.88
2022-11-16T13:22:06.425Z,10.86
2022-11-16T13:24:47.833Z,10.83
2022-11-16T13:27:30.227Z,10.78
2022-11-16T13:30:05.519Z,10.94
2022-11-16T13:32:50.968Z,10.97
2022-11-16T13:35:21.447Z,10.86
2022-11-16T13:37:51.878Z,10.85
2022-11-16T13:40:30.950Z,10.80
2022-11-16T13:43:22.716Z,10.91
2022-11-16T13:45:58.729Z,10.91
2022-11-16T13:48:33.837Z,10.97
2022-11-16T13:51:05.070Z,11.03
2022-11-16T13:56:29.410Z,10.60
2022-11-16T13:58:59.564Z,10.82
2022-11-16T14:01:57.479Z,10.79
2022-11-16T14:04:44.417Z,10.83
2022-11-16T14:07:31.342Z,11.10
2022-11-16T14:10:00.824Z,10.87
2022-11-16T14:13:01.015Z,11.12
2022-11-16T14:15:32.945Z,11.19
2022-11-16T14:18:38.219Z,10.92
2022-11-16T14:21:18.780Z,10.70
2022-11-16T14:24:12.388Z,10.82
2022-11-16T14:26:50.147Z,10.82
2022-11-16T14:29:52.260Z,10.76
2022-11-16T14:32:23.693Z,10.86
2022-11-16T14:34:56.727Z,11.21
2022-11-16T14:37:35.499Z,10.90
2022-11-16T14:40:08.860Z,10.91
2022-11-16T14:43:14.962Z,11.18
2022-11-16T14:45:39.624Z,11.06
2022-11-16T14:48:17.056Z,10.61
2022-11-16T14:51:05.520Z,10.92
2022-11-16T14:53:37.092Z,10.75
2022-11-16T14:56:11.964Z,10.65
2022-11-16T14:58:41.686Z,10.80
2022-11-16T15:01:16.949Z,10.96
2022-11-16T15:03:53.303Z,10.91
2022-11-16T15:06:25.229Z,11.10
2022-11-16T15:08:58.203Z,10.32
2022-11-16T15:11:49.770Z,10.27
2022-11-16T15:14:21.663Z,10.62
2022-11-16T15:16:52.812Z,10.65
2022-11-16T15:19:22.800Z,10.74
2022-11-16T15:21:54.738Z,10.92
2022-11-16T15:24:31.587Z,10.44
2022-11-16T15:27:20.219Z,10.39
2022-11-16T15:29:50.113Z,10.64
2022-11-16T15:32:19.675Z,10.73
2022-11-16T15:34:50.459Z,10.74
2022-11-16T15:37:30.317Z,10.59
2022-11-16T15:40:00.111Z,10.68
2022-11-16T15:42:30.517Z,10.84
2022-11-16T15:45:02.116Z,10.26
2022-11-16T15:47:32.157Z,10.27
2022-11-16T15:50:01.361Z,10.19
2022-11-16T15:52:55.012Z,10.53
2022-11-16T15:55:39.668Z,10.89
2022-11-16T15:58:15.220Z,10.75
2022-11-16T16:00:47.723Z,10.62
2022-11-16T16:03:23.247Z,10.72
2022-11-16T16:05:53.157Z,10.61
2022-11-16T16:08:34.292Z,10.78
2022-11-16T16:11:06.855Z,10.62
2022-11-16T16:13:38.978Z,10.67
2022-11-16T16:16:45.487Z,10.57
2022-11-16T16:19:36.665Z,10.44
2022-11-16T16:22:07.893Z,10.73
2022-11-16T16:24:41.694Z,10.43
2022-11-16T16:27:13.177Z,10.65
2022-11-16T16:29:42.554Z,10.75
2022-11-16T16:32:15.924Z,10.88
2022-11-16T16:34:44.753Z,10.98
2022-11-16T16:37:13.905Z,10.55
2022-11-16T16:39:44.577Z,10.51
2022-11-16T16:42:15.635Z,10.28
2022-11-16T16:44:46.306Z,10.03
2022-11-16T16:47:15.891Z,10.43
2022-11-16T16:54:28.560Z,10.57
2022-11-16T16:57:01.655Z,10.57
2022-11-16T16:59:31.986Z,10.65
2022-11-16T17:02:01.883Z,10.92
2022-11-16T17:04:31.594Z,11.04
2022-11-16T17:07:01.225Z,11.04
2022-11-16T17:09:31.389Z,10.32
2022-11-16T17:16:15.151Z,10.55
2022-11-16T17:18:49.255Z,10.77
2022-11-16T17:21:19.895Z,10.79
2022-11-16T17:24:03.536Z,10.80
2022-11-16T17:26:38.185Z,10.69
2022-11-16T17:29:13.492Z,10.77
2022-11-16T17:31:58.571Z,10.70
2022-11-16T17:34:28.821Z,10.63
2022-11-16T17:36:58.703Z,10.51
2022-11-16T17:39:33.173Z,10.70
2022-11-16T17:46:18.243Z,10.41
2022-11-16T17:48:51.488Z,10.51
2022-11-16T17:51:28.681Z,10.54
2022-11-16T17:53:58.271Z,10.32
2022-11-16T17:56:33.142Z,10.71
2022-11-16T17:59:09.918Z,10.69
2022-11-16T18:01:40.212Z,10.27
2022-11-16T18:04:13.260Z,10.23
2022-11-16T18:06:49.069Z,10.66
2022-11-16T18:09:29.308Z,10.62
2022-11-16T18:12:08.457Z,10.56
2022-11-16T18:14:59.940Z,10.41
2022-11-16T18:17:37.696Z,10.55
2022-11-16T18:20:27.874Z,10.68
2022-11-16T18:23:04.614Z,10.41
2022-11-16T18:25:55.943Z,10.47
2022-11-16T18:28:30.725Z,10.40
2022-11-16T18:31:09.084Z,10.73
2022-11-16T18:34:10.615Z,10.65
2022-11-16T18:36:58.821Z,10.41
2022-11-16T18:39:36.540Z,10.40
2022-11-16T18:42:15.932Z,10.41
2022-11-16T18:44:48.564Z,10.06
2022-11-16T18:47:18.222Z,10.07
2022-11-16T18:49:48.211Z,10.11
2022-11-16T18:52:19.726Z,10.48
2022-11-16T18:54:49.675Z,9.87
2022-11-16T18:57:19.785Z,9.95
2022-11-16T18:59:49.946Z,9.77
2022-11-16T19:02:20.497Z,9.81
2022-11-16T19:04:53.167Z,9.96
2022-11-16T19:07:32.344Z,9.74
2022-11-16T19:10:03.126Z,9.95
2022-11-16T19:12:34.796Z,10.07
2022-11-16T19:15:05.673Z,10.26
2022-11-16T19:17:48.017Z,9.95
2022-11-16T19:20:25.184Z,9.83
2022-11-16T19:22:56.969Z,10.09
2022-11-16T19:25:26.836Z,10.40
2022-11-16T19:27:58.915Z,10.33
2022-11-16T19:30:31.005Z,10.19
2022-11-16T19:33:01.131Z,10.20
2022-11-16T19:35:33.770Z,10.39
2022-11-16T19:38:05.254Z,10.33
2022-11-16T19:40:39.613Z,10.39
2022-11-16T19:43:10.467Z,10.02
2022-11-16T19:45:40.319Z,10.00
2022-11-16T19:48:10.160Z,9.85
2022-11-16T19:59:54.372Z,10.07
2022-11-16T20:02:25.045Z,9.82
2022-11-16T20:05:45.690Z,9.19
2022-11-16T20:08:15.790Z,10.00
2022-11-16T20:10:47.730Z,9.81
2022-11-16T20:13:18.555Z,10.08
2022-11-16T20:15:48.960Z,10.05
2022-11-16T20:18:18.900Z,10.29
2022-11-16T20:20:55.245Z,10.32
2022-11-16T20:23:31.254Z,10.32
2022-11-16T20:26:38.939Z,9.77
2022-11-16T20:36:13.919Z,9.63
2022-11-16T20:38:44.474Z,9.97
2022-11-16T20:41:16.537Z,9.76
2022-11-16T20:43:51.116Z,9.82
2022-11-16T20:46:22.633Z,9.81
2022-11-16T20:48:52.954Z,9.55
2022-11-16T20:51:23.438Z,9.44
2022-11-16T20:53:54.164Z,9.39
2022-11-16T20:56:24.524Z,9.80
2022-11-16T20:58:56.213Z,9.61
2022-11-16T21:01:32.146Z,9.46
2022-11-16T21:04:03.739Z,9.75
2022-11-16T21:06:33.741Z,9.59
2022-11-16T21:09:05.277Z,9.52
2022-11-16T21:11:56.954Z,9.80
2022-11-16T21:14:27.274Z,9.82
2022-11-16T21:16:57.995Z,9.76
2022-11-16T21:19:27.835Z,9.51
2022-11-16T21:21:59.361Z,9.52
2022-11-16T21:24:32.014Z,9.24
2022-11-16T21:27:02.961Z,9.25
2022-11-16T21:29:37.653Z,9.29
2022-11-16T21:32:07.613Z,9.30
2022-11-16T21:34:41.084Z,9.35
2022-11-16T21:37:11.757Z,9.62
2022-11-16T21:39:41.919Z,9.48
2022-11-16T21:42:13.614Z,9.27
2022-11-16T21:44:45.454Z,8.96
2022-11-16T21:47:15.734Z,9.22
2022-11-16T21:50:08.739Z,9.15
2022-11-16T21:52:35.494Z,9.46
2022-11-16T21:55:05.115Z,8.93
2022-11-16T21:57:35.014Z,8.87
2022-11-16T22:00:07.436Z,9.43
2022-11-16T22:02:37.834Z,9.37
2022-11-16T22:05:26.433Z,8.81
2022-11-16T22:07:56.539Z,8.84
2022-11-16T22:10:26.460Z,9.14
2022-11-16T22:12:56.555Z,8.94
2022-11-16T22:15:28.554Z,8.74
2022-11-16T22:17:58.497Z,8.86
2022-11-16T22:20:28.974Z,9.31
2022-11-16T22:22:59.934Z,9.14
2022-11-16T22:25:30.780Z,9.44
2022-11-16T22:31:01.856Z,9.27
2022-11-16T22:33:32.058Z,9.44
2022-11-16T22:36:02.160Z,9.13
2022-11-16T22:38:33.054Z,9.03
2022-11-16T22:41:02.556Z,9.15
2022-11-16T22:43:33.680Z,8.97
2022-11-16T22:46:07.134Z,8.80
2022-11-16T22:48:38.693Z,9.19
2022-11-16T22:51:13.535Z,9.44
2022-11-16T22:53:43.294Z,8.77
2022-11-16T22:56:13.956Z,8.79
2022-11-16T22:58:43.936Z,9.19
2022-11-16T23:01:14.876Z,9.20
2022-11-16T23:03:45.429Z,8.98
2022-11-16T23:06:15.295Z,8.90
2022-11-16T23:08:45.515Z,9.46
2022-11-16T23:11:33.954Z,9.52
2022-11-16T23:14:21.961Z,8.94
2022-11-16T23:16:54.122Z,9.05
2022-11-16T23:19:42.595Z,9.43
2022-11-16T23:22:45.476Z,9.53
2022-11-16T23:25:32.675Z,9.52
2022-11-16T23:28:07.155Z,9.42
2022-11-16T23:30:38.196Z,9.43
2022-11-16T23:33:11.156Z,9.32
2022-11-16T23:35:41.159Z,9.15
2022-11-16T23:38:11.315Z,9.21
2022-11-16T23:40:41.797Z,9.29
2022-11-16T23:43:30.275Z,9.22
2022-11-16T23:46:00.503Z,9.22
2022-11-16T23:48:31.957Z,9.20
2022-11-16T23:51:02.097Z,8.53
2022-11-16T23:53:32.765Z,8.60
2022-11-16T23:56:06.259Z,9.19
2022-11-16T23:58:36.584Z,9.37
